Time;durP1;ratioP1;P1;durP2;ratioP2;P2;SDS_P1;SDS_P2;PMS_P1;PMS_P2;Temp;Humidity;BMP_temperature;BMP_pressure;BME280_temperature;BME280_humidity;BME280_pressure;Samples;Min_cycle;Max_cycle;Signal;HPM_P1;HPM_P2
2021/06/12 00:01:59;;;;;;;6.33;5.65;;;;;;;18.30;66.98;98979.42;1726292;83;21037;-43
2021/06/12 00:04:25;;;;;;;8.00;6.10;;;;;;;18.27;66.85;98978.89;1726211;82;21128;-42
2021/06/12 00:06:57;;;;;;;10.45;6.33;;;;;;;18.23;66.84;98967.99;1716654;82;21547;-42
2021/06/12 00:09:22;;;;;;;6.90;5.90;;;;;;;18.19;67.13;98968.66;1713216;82;20994;-42
2021/06/12 00:11:48;;;;;;;10.93;6.35;;;;;;;17.87;67.22;98922.40;1713385;83;20967;-43
2021/06/12 00:14:16;;;;;;;7.37;6.03;;;;;;;18.12;67.17;98967.41;1713424;83;21580;-42
2021/06/12 00:16:44;;;;;;;8.70;6.20;;;;;;;18.10;67.10;98968.44;1713551;82;21021;-43
2021/06/12 00:19:11;;;;;;;8.75;6.50;;;;;;;18.06;66.98;98969.07;1713476;83;20994;-42
2021/06/12 00:21:38;;;;;;;8.55;6.37;;;;;;;18.04;66.82;98963.84;1713253;83;21037;-42
2021/06/12 00:24:08;;;;;;;9.03;6.20;;;;;;;18.01;66.89;98966.06;1713438;82;21030;-42
2021/06/12 00:26:35;;;;;;;7.22;6.35;;;;;;;17.98;66.93;98961.39;1713298;83;21682;-42
2021/06/12 00:29:02;;;;;;;8.65;6.90;;;;;;;17.94;67.02;98964.20;1713360;82;21139;-42
2021/06/12 00:31:30;;;;;;;8.80;6.08;;;;;;;17.91;67.03;98960.16;1713133;82;20973;-43
2021/06/12 00:33:57;;;;;;;7.25;6.33;;;;;;;17.89;67.07;98956.45;1713538;82;20970;-42
2021/06/12 00:36:24;;;;;;;8.50;6.37;;;;;;;17.88;67.02;98955.48;1713143;82;21006;-43
2021/06/12 00:38:51;;;;;;;8.33;7.05;;;;;;;17.88;66.91;98956.86;1713498;82;21515;-42
2021/06/12 00:41:19;;;;;;;8.43;7.58;;;;;;;17.81;66.96;98953.04;1713380;83;21134;-43
2021/06/12 00:43:46;;;;;;;11.22;7.85;;;;;;;17.77;67.17;98954.29;1713538;83;21647;-43
2021/06/12 00:46:14;;;;;;;9.20;7.42;;;;;;;17.74;67.41;98952.39;1713256;83;20946;-42
2021/06/12 00:48:45;;;;;;;10.70;6.90;;;;;;;17.72;67.61;98955.55;1713360;82;21041;-42
2021/06/12 00:51:11;;;;;;;8.38;6.97;;;;;;;17.71;67.55;98959.50;1713581;83;21069;-42
2021/06/12 00:53:41;;;;;;;8.60;7.22;;;;;;;17.72;67.41;98959.66;1713464;83;21122;-42
2021/06/12 00:56:12;;;;;;;8.65;7.85;;;;;;;17.72;67.33;98962.99;1713587;82;21574;-42
2021/06/12 00:58:44;;;;;;;9.35;7.78;;;;;;;17.71;67.51;98958.13;1713646;83;21092;-42
2021/06/12 01:01:13;;;;;;;7.85;6.90;;;;;;;17.71;67.80;98958.72;1713395;83;20985;-42
2021/06/12 01:03:40;;;;;;;8.13;7.07;;;;;;;17.67;67.86;98950.53;1713935;83;21523;-42
2021/06/12 01:06:11;;;;;;;12.35;7.78;;;;;;;17.65;67.80;98956.27;1717078;83;21126;-42
2021/06/12 01:08:38;;;;;;;8.60;7.17;;;;;;;17.64;67.72;98958.23;1726296;82;21601;-42
2021/06/12 01:11:06;;;;;;;9.25;7.35;;;;;;;17.64;67.60;98954.13;1726456;83;21045;-43
2021/06/12 01:14:03;;;;;;;9.45;7.45;;;;;;;17.64;67.57;98954.13;1726463;83;21515;-42
2021/06/12 01:16:37;;;;;;;9.88;7.58;;;;;;;17.66;67.55;98955.09;1726279;81;21045;-43
2021/06/12 01:19:25;;;;;;;8.78;6.87;;;;;;;17.62;67.66;98953.75;1726647;82;21901;-42
2021/06/12 01:21:52;;;;;;;9.20;7.58;;;;;;;17.61;67.73;98955.55;1726297;82;20941;-42
2021/06/12 01:24:59;;;;;;;12.63;8.10;;;;;;;17.60;67.82;98951.26;1710010;83;21040;-42
2021/06/12 01:27:57;;;;;;;11.00;7.45;;;;;;;17.57;67.86;98959.67;1725789;82;21503;-42
2021/06/12 01:30:35;;;;;;;10.25;7.30;;;;;;;17.53;67.89;98954.84;1726510;83;21009;-42
2021/06/12 01:33:08;;;;;;;12.70;8.58;;;;;;;17.50;67.96;98959.80;1726272;83;21063;-42
2021/06/12 01:35:51;;;;;;;9.75;8.60;;;;;;;17.49;68.04;98959.61;1726407;83;20965;-42
2021/06/12 01:38:24;;;;;;;10.28;8.18;;;;;;;17.45;68.30;98968.48;1726332;82;21049;-42
2021/06/12 01:40:51;;;;;;;9.33;8.33;;;;;;;17.37;68.46;98969.80;1726187;82;21009;-42
2021/06/12 01:43:18;;;;;;;9.70;8.25;;;;;;;17.29;68.55;98966.36;1726415;83;21056;-42
2021/06/12 01:45:48;;;;;;;10.20;8.80;;;;;;;17.27;68.53;98962.50;1709943;83;20980;-42
2021/06/12 01:48:15;;;;;;;9.08;7.62;;;;;;;17.25;68.87;98975.23;1726374;83;21080;-43
2021/06/12 01:50:42;;;;;;;8.65;7.75;;;;;;;17.08;68.52;98975.49;1726447;82;21053;-42
2021/06/12 01:53:09;;;;;;;9.65;8.18;;;;;;;16.85;68.81;98971.46;1734747;81;20941;-43
2021/06/12 01:55:38;;;;;;;10.85;7.70;;;;;;;16.69;69.38;98976.77;1756439;81;21041;-43
2021/06/12 01:58:12;;;;;;;11.38;7.60;;;;;;;16.61;69.69;98983.48;1720469;83;21126;-42
2021/06/12 02:00:38;;;;;;;9.60;8.08;;;;;;;16.53;69.62;98981.41;1719222;83;21584;-42
2021/06/12 02:03:05;;;;;;;9.20;7.50;;;;;;;16.47;69.83;98985.77;1694006;83;21084;-42
2021/06/12 02:05:33;;;;;;;10.55;8.15;;;;;;;16.39;70.08;98990.36;1694036;83;21518;-43
2021/06/12 02:08:00;;;;;;;10.35;7.75;;;;;;;16.34;70.38;98992.17;1708075;83;21574;-42
2021/06/12 02:10:30;;;;;;;8.78;7.70;;;;;;;16.37;70.32;98994.86;1742844;81;21139;-43
2021/06/12 02:12:56;;;;;;;8.60;7.78;;;;;;;16.41;70.18;99002.44;1707624;84;20997;-43
2021/06/12 02:15:25;;;;;;;8.30;7.50;;;;;;;16.45;70.11;98996.36;1742947;82;21563;-42
2021/06/12 02:17:59;;;;;;;9.25;7.22;;;;;;;16.51;69.97;98995.30;1707497;83;20941;-42
2021/06/12 02:20:26;;;;;;;10.00;7.72;;;;;;;16.58;69.81;98996.63;1742909;81;21045;-42
2021/06/12 02:22:53;;;;;;;12.53;7.78;;;;;;;16.63;69.72;98997.55;1707369;83;22311;-42
2021/06/12 02:25:20;;;;;;;8.80;7.50;;;;;;;16.70;69.57;98997.45;1742793;81;21009;-41
2021/06/12 02:27:53;;;;;;;10.45;8.00;;;;;;;16.74;69.43;98994.11;1707286;83;21535;-42
2021/06/12 02:30:24;;;;;;;8.93;7.85;;;;;;;16.77;69.37;99002.86;1742972;82;20981;-42
2021/06/12 02:32:55;;;;;;;8.53;7.65;;;;;;;16.80;69.40;99007.50;1707310;84;21016;-42
2021/06/12 02:35:21;;;;;;;13.05;8.33;;;;;;;16.85;69.42;99013.90;1743081;81;21115;-43
2021/06/12 02:37:49;;;;;;;9.00;8.10;;;;;;;16.89;69.53;99009.16;1663029;84;20965;-42
2021/06/12 02:40:16;;;;;;;9.28;8.03;;;;;;;16.94;69.68;99001.86;1743037;82;21551;-42
2021/06/12 02:42:42;;;;;;;12.82;8.70;;;;;;;17.02;69.74;99007.25;1707104;84;20981;-42
2021/06/12 02:45:10;;;;;;;10.20;8.25;;;;;;;17.09;69.72;99007.17;1743183;82;21077;-42
2021/06/12 02:47:44;;;;;;;11.50;8.25;;;;;;;17.14;69.68;99005.33;1707239;84;21803;-42
2021/06/12 02:50:11;;;;;;;12.98;9.03;;;;;;;17.17;69.60;99006.66;1742919;81;20965;-42
2021/06/12 02:52:38;;;;;;;12.63;9.48;;;;;;;17.16;69.57;99005.70;1707184;83;21102;-43
2021/06/12 02:55:10;;;;;;;11.18;8.75;;;;;;;17.16;69.62;99001.59;1743026;81;21815;-43
2021/06/12 02:57:38;;;;;;;10.15;9.15;;;;;;;17.19;69.61;99005.64;1707307;84;21519;-43
2021/06/12 03:00:07;;;;;;;10.80;9.43;;;;;;;17.25;69.50;99000.48;1742920;82;21118;-42
2021/06/12 03:02:37;;;;;;;11.12;8.98;;;;;;;17.31;69.42;99001.58;1707511;83;21499;-43
2021/06/12 03:05:06;;;;;;;;;;;;;;;17.32;69.35;98999.81;1745504;82;21088;-43
2021/06/12 03:07:33;;;;;;;10.38;8.63;;;;;;;17.30;69.49;99002.17;1742900;82;20128;-42
2021/06/12 03:09:59;;;;;;;11.63;9.45;;;;;;;17.26;69.79;99004.78;1707290;83;21017;-43
2021/06/12 03:12:28;;;;;;;16.48;10.13;;;;;;;17.35;69.78;99006.41;1742931;81;20922;-43
2021/06/12 03:14:56;;;;;;;12.07;9.13;;;;;;;17.40;69.75;99005.95;1743032;81;20982;-43
2021/06/12 03:17:23;;;;;;;12.07;9.75;;;;;;;17.44;69.72;99004.52;1707156;83;21036;-42
2021/06/12 03:19:49;;;;;;;11.45;9.58;;;;;;;17.48;69.70;99005.23;1732279;82;20974;-43
2021/06/12 03:22:16;;;;;;;11.25;9.33;;;;;;;17.53;69.75;99006.92;1707474;83;21518;-43
2021/06/12 03:24:42;;;;;;;13.32;9.45;;;;;;;17.59;69.50;99001.78;1742733;82;21177;-43
2021/06/12 03:27:09;;;;;;;13.38;9.68;;;;;;;17.61;69.51;99000.20;1707222;83;20929;-43
2021/06/12 03:29:36;;;;;;;14.25;9.83;;;;;;;17.68;69.59;99008.30;1662911;84;21037;-43
2021/06/12 03:32:03;;;;;;;12.70;10.75;;;;;;;17.74;69.45;99008.02;1732547;82;20931;-43
2021/06/12 03:34:30;;;;;;;12.03;10.50;;;;;;;17.79;69.43;99013.02;1743290;82;21018;-43
2021/06/12 03:36:57;;;;;;;14.18;10.30;;;;;;;17.85;69.40;99013.92;1742962;82;21779;-43
2021/06/12 03:39:23;;;;;;;12.47;10.45;;;;;;;17.88;69.50;99017.19;1743055;82;21004;-42
2021/06/12 03:41:50;;;;;;;12.18;10.55;;;;;;;17.91;69.43;99017.75;1743014;82;21085;-43
2021/06/12 03:44:16;;;;;;;13.98;11.40;;;;;;;17.95;69.22;99019.84;1743102;81;21251;-43
2021/06/12 03:46:43;;;;;;;12.50;10.82;;;;;;;17.98;69.24;99028.59;1742905;82;21068;-42
2021/06/12 03:49:11;;;;;;;12.45;10.70;;;;;;;18.02;69.08;99027.93;1743135;81;21131;-43
2021/06/12 03:51:39;;;;;;;14.40;10.90;;;;;;;18.05;68.92;99027.89;1742932;81;21006;-43
2021/06/12 03:54:07;;;;;;;12.25;11.05;;;;;;;18.06;68.93;99029.42;1743187;82;21615;-43
2021/06/12 03:56:36;;;;;;;15.95;10.98;;;;;;;18.07;68.93;99031.57;1743562;81;21362;-43
2021/06/12 03:59:04;;;;;;;14.93;10.65;;;;;;;18.12;68.97;99033.84;1763854;81;21006;-42
2021/06/12 04:01:31;;;;;;;10.95;9.85;;;;;;;18.13;68.93;99038.92;1763441;81;21044;-43
2021/06/12 04:03:57;;;;;;;11.15;10.05;;;;;;;18.17;68.90;99039.63;1763927;81;20950;-43
2021/06/12 04:06:24;;;;;;;11.40;10.30;;;;;;;18.20;68.73;99042.15;1763394;80;20965;-43
2021/06/12 04:08:52;;;;;;;12.55;9.90;;;;;;;18.18;68.78;99041.19;1764036;81;21057;-43
2021/06/12 04:11:19;;;;;;;11.00;9.78;;;;;;;18.24;68.83;99046.38;1764275;81;20930;-43
2021/06/12 04:13:45;;;;;;;10.80;9.18;;;;;;;18.29;68.78;99047.09;1764021;81;21131;-43
2021/06/12 04:16:13;;;;;;;13.68;10.45;;;;;;;18.38;68.85;99045.35;1749612;81;20914;-43
2021/06/12 04:18:40;;;;;;;11.80;10.40;;;;;;;18.43;68.76;99044.88;1731687;82;21475;-43
2021/06/12 04:21:06;;;;;;;12.30;9.98;;;;;;;18.49;68.70;99047.30;1748500;82;21004;-43
2021/06/12 04:23:33;;;;;;;12.35;10.53;;;;;;;18.53;68.69;99042.56;1748541;82;20994;-43
2021/06/12 04:26:00;;;;;;;13.22;9.95;;;;;;;18.60;68.78;99049.28;1748577;82;21117;-43
2021/06/12 04:28:27;;;;;;;12.10;9.45;;;;;;;18.68;68.70;99041.70;1748619;82;21543;-43
2021/06/12 04:30:54;;;;;;;12.55;9.83;;;;;;;18.71;68.46;99040.07;1710470;83;21000;-43
2021/06/12 04:33:21;;;;;;;10.68;9.58;;;;;;;18.76;68.70;99041.73;1748786;81;21472;-43
2021/06/12 04:35:48;;;;;;;11.65;9.58;;;;;;;18.80;68.64;99045.19;1748999;82;21045;-44
2021/06/12 04:38:14;;;;;;;10.40;9.05;;;;;;;18.86;68.79;99045.47;1748743;82;21913;-43
2021/06/12 04:40:41;;;;;;;10.55;9.15;;;;;;;18.96;68.65;99045.86;1748468;82;20957;-43
2021/06/12 04:43:12;;;;;;;10.43;8.40;;;;;;;19.09;68.51;99050.88;1710595;83;21092;-43
2021/06/12 04:45:39;;;;;;;11.22;9.08;;;;;;;19.18;68.04;99046.96;1748554;82;21044;-43
2021/06/12 04:48:08;;;;;;;9.65;8.40;;;;;;;19.21;67.89;99043.38;1748864;82;21571;-43
2021/06/12 04:50:38;;;;;;;10.40;9.25;;;;;;;19.28;68.07;99041.84;1710629;83;21033;-43
2021/06/12 04:53:10;;;;;;;8.93;8.03;;;;;;;19.33;67.48;99039.97;1748844;81;20957;-43
2021/06/12 04:55:37;;;;;;;9.80;8.48;;;;;;;19.41;67.55;99046.85;1748858;82;21523;-43
2021/06/12 04:58:04;;;;;;;8.98;8.13;;;;;;;19.51;67.38;99047.25;1748678;82;21013;-43
2021/06/12 05:00:31;;;;;;;8.65;7.58;;;;;;;19.62;67.03;99053.11;1748667;82;20985;-43
2021/06/12 05:02:57;;;;;;;9.00;7.60;;;;;;;19.71;66.76;99059.57;1748732;82;21146;-43
2021/06/12 05:05:24;;;;;;;8.83;7.28;;;;;;;19.82;66.87;99054.61;1748617;82;20997;-43
2021/06/12 05:07:51;;;;;;;9.80;7.78;;;;;;;19.92;66.65;99046.70;1752435;81;20989;-43
2021/06/12 05:10:19;;;;;;;10.10;7.85;;;;;;;20.03;66.34;99049.20;1720286;83;20929;-43
2021/06/12 05:12:46;;;;;;;8.50;7.70;;;;;;;20.09;66.17;99043.33;1720403;83;21040;-43
2021/06/12 05:15:14;;;;;;;8.70;7.25;;;;;;;20.09;66.17;99049.47;1720521;83;21170;-43
2021/06/12 05:17:43;;;;;;;8.80;7.78;;;;;;;20.12;66.22;99046.62;1720658;83;21574;-43
2021/06/12 05:20:11;;;;;;;8.00;7.20;;;;;;;20.20;66.23;99045.83;1720444;83;21080;-43
2021/06/12 05:22:38;;;;;;;8.38;7.45;;;;;;;20.25;66.09;99046.09;1720491;83;21068;-43
2021/06/12 05:25:06;;;;;;;9.98;7.75;;;;;;;20.33;65.67;99044.72;1720434;83;21534;-43
2021/06/12 05:27:33;;;;;;;9.40;7.47;;;;;;;20.38;65.43;99048.33;1720348;83;21132;-43
2021/06/12 05:29:59;;;;;;;8.73;7.50;;;;;;;20.44;65.37;99046.42;1720666;83;20997;-43
2021/06/12 05:32:26;;;;;;;11.40;7.05;;;;;;;20.49;65.30;99045.90;1720380;83;20984;-43
2021/06/12 05:34:56;;;;;;;9.23;8.25;;;;;;;20.58;65.24;99046.83;1720450;83;20956;-42
2021/06/12 05:37:22;;;;;;;8.98;7.47;;;;;;;20.69;65.43;99045.95;1720451;83;21073;-43
2021/06/12 05:39:48;;;;;;;9.05;7.25;;;;;;;20.79;64.91;99048.23;1720471;83;21144;-43
2021/06/12 05:42:15;;;;;;;9.48;7.17;;;;;;;20.88;63.91;99051.73;1720495;83;21566;-43
2021/06/12 05:44:42;;;;;;;7.30;6.60;;;;;;;20.94;63.74;99054.13;1720459;83;21076;-43
2021/06/12 05:47:09;;;;;;;8.70;7.05;;;;;;;21.03;63.44;99055.04;1720502;83;20988;-43
2021/06/12 05:49:35;;;;;;;7.97;6.20;;;;;;;21.12;62.90;99056.55;1720334;83;21071;-43
2021/06/12 05:52:03;;;;;;;9.25;6.53;;;;;;;21.16;62.99;99050.35;1720536;83;21109;-43
2021/06/12 05:54:29;;;;;;;7.47;5.97;;;;;;;21.22;62.85;99047.83;1720601;83;20999;-43
2021/06/12 05:56:56;;;;;;;7.55;5.90;;;;;;;21.31;62.80;99046.58;1720504;83;21011;-43
2021/06/12 05:59:23;;;;;;;8.08;6.03;;;;;;;21.41;62.21;99048.84;1720726;83;20941;-43
2021/06/12 06:01:49;;;;;;;7.50;6.12;;;;;;;21.49;62.80;99050.20;1714410;83;21048;-43
2021/06/12 06:04:16;;;;;;;8.08;6.30;;;;;;;21.56;62.87;99049.97;1720447;83;21589;-43
2021/06/12 06:06:43;;;;;;;8.48;6.28;;;;;;;21.61;62.47;99043.91;1720492;83;21001;-43
2021/06/12 06:09:09;;;;;;;7.40;5.75;;;;;;;21.67;62.32;99050.42;1708954;83;20992;-44
2021/06/12 06:11:36;;;;;;;6.83;6.03;;;;;;;21.71;62.01;99041.42;1743163;82;21010;-43
2021/06/12 06:14:02;;;;;;;8.08;5.50;;;;;;;21.77;62.33;99043.80;1707572;84;21020;-43
2021/06/12 06:16:29;;;;;;;6.70;5.95;;;;;;;21.81;61.47;99038.94;1743088;82;21528;-43
2021/06/12 06:18:56;;;;;;;6.75;5.42;;;;;;;21.83;61.32;99035.74;1707455;83;20961;-42
2021/06/12 06:21:22;;;;;;;5.72;5.12;;;;;;;21.84;61.70;99031.75;1707541;84;20969;-43
2021/06/12 06:23:49;;;;;;;6.35;5.62;;;;;;;21.87;61.36;99041.92;1743043;81;21026;-43
2021/06/12 06:26:16;;;;;;;6.37;5.72;;;;;;;21.95;61.43;99041.27;1707554;83;21541;-43
2021/06/12 06:28:42;;;;;;;6.67;5.70;;;;;;;22.06;61.13;99043.08;1743217;82;21089;-42
2021/06/12 06:31:09;;;;;;;7.22;6.15;;;;;;;22.16;60.98;99039.03;1707308;84;20985;-43
2021/06/12 06:33:35;;;;;;;7.70;6.58;;;;;;;22.20;60.36;99037.69;1743219;82;21018;-43
2021/06/12 06:36:02;;;;;;;7.53;6.47;;;;;;;22.22;60.33;99034.50;1686102;84;21553;-43
2021/06/12 06:38:29;;;;;;;7.47;5.70;;;;;;;22.23;60.46;99035.41;1743107;82;21026;-42
2021/06/12 06:40:56;;;;;;;5.87;5.28;;;;;;;22.26;60.29;99035.92;1707531;83;21104;-43
2021/06/12 06:43:22;;;;;;;6.92;6.20;;;;;;;22.38;60.21;99032.94;1707429;84;21468;-43
2021/06/12 06:45:49;;;;;;;8.80;5.50;;;;;;;22.45;59.49;99039.02;1743077;82;20974;-43
2021/06/12 06:48:16;;;;;;;7.55;6.28;;;;;;;22.46;59.36;99037.02;1707446;84;20937;-43
2021/06/12 06:50:44;;;;;;;6.35;5.30;;;;;;;22.50;59.51;99034.30;1743242;81;21002;-43
2021/06/12 06:53:11;;;;;;;6.70;5.72;;;;;;;22.63;59.62;99041.14;1743001;82;21145;-43
2021/06/12 06:55:38;;;;;;;7.60;5.53;;;;;;;22.77;59.08;99037.91;1707461;84;21008;-43
2021/06/12 06:58:05;;;;;;;6.90;5.40;;;;;;;22.93;58.79;99046.02;1743218;81;21655;-43
2021/06/12 07:00:31;;;;;;;5.33;4.83;;;;;;;23.09;58.03;99040.87;1707430;84;21052;-43
2021/06/12 07:02:59;;;;;;;6.55;5.62;;;;;;;23.17;57.60;99044.94;1743139;82;21084;-43
2021/06/12 07:05:27;;;;;;;6.45;5.62;;;;;;;23.15;57.50;99041.07;1707656;83;21990;-43
2021/06/12 07:07:54;;;;;;;6.65;5.33;;;;;;;23.11;56.99;99037.67;1742972;81;21550;-43
2021/06/12 07:10:21;;;;;;;6.85;5.83;;;;;;;23.06;56.83;99044.55;1707198;83;21001;-43
2021/06/12 07:12:48;;;;;;;7.85;5.50;;;;;;;23.08;57.54;99039.97;1707498;84;21550;-43
2021/06/12 07:15:16;;;;;;;6.28;5.28;;;;;;;23.15;57.57;99041.07;1743105;82;21032;-43
2021/06/12 07:17:42;;;;;;;7.95;5.35;;;;;;;23.25;56.23;99038.52;1707179;84;21794;-43
2021/06/12 07:20:11;;;;;;;7.37;5.08;;;;;;;23.31;55.50;99041.64;1743293;81;20955;-43
2021/06/12 07:22:37;;;;;;;5.67;5.10;;;;;;;23.34;54.43;99042.72;1743206;82;21562;-43
2021/06/12 07:25:07;;;;;;;5.50;5.00;;;;;;;23.31;54.80;99041.64;1707211;84;21011;-43
2021/06/12 07:27:34;;;;;;;6.33;5.28;;;;;;;23.34;54.98;99045.48;1742988;82;21522;-43
2021/06/12 07:30:02;;;;;;;5.28;4.78;;;;;;;23.42;54.96;99044.00;1707297;84;21788;-43
2021/06/12 07:32:28;;;;;;;5.47;4.85;;;;;;;23.54;55.41;99045.15;1743011;82;21601;-43
2021/06/12 07:34:55;;;;;;;5.60;5.10;;;;;;;23.66;54.91;99043.69;1707232;84;20926;-43
2021/06/12 07:37:22;;;;;;;6.20;5.60;;;;;;;23.83;54.32;99040.81;1743044;82;21033;-42
2021/06/12 07:39:49;;;;;;;5.55;4.97;;;;;;;23.91;53.96;99041.31;1743186;82;21508;-43
2021/06/12 07:42:15;;;;;;;8.85;5.55;;;;;;;23.94;53.46;99039.61;1707448;83;21880;-43
2021/06/12 07:44:42;;;;;;;7.78;5.47;;;;;;;23.98;53.95;99039.63;1742997;82;21035;-43
2021/06/12 07:47:08;;;;;;;6.22;4.75;;;;;;;24.03;54.00;99039.63;1707425;84;21589;-43
2021/06/12 07:49:35;;;;;;;5.72;4.75;;;;;;;23.99;53.78;99043.17;1743270;82;20985;-44
2021/06/12 07:52:03;;;;;;;6.55;5.30;;;;;;;23.88;53.32;99041.44;1707363;84;21526;-43
2021/06/12 07:54:30;;;;;;;4.75;4.25;;;;;;;23.74;53.18;99037.24;1742981;82;21096;-43
2021/06/12 07:56:57;;;;;;;5.58;4.67;;;;;;;23.66;53.80;99031.23;1742988;82;21512;-43
2021/06/12 07:59:24;;;;;;;5.00;4.30;;;;;;;23.69;54.05;99034.45;1707366;83;21033;-43
2021/06/12 08:01:50;;;;;;;6.15;4.80;;;;;;;23.85;54.74;99037.59;1743159;82;21559;-43
2021/06/12 08:04:18;;;;;;;4.70;4.30;;;;;;;24.07;55.17;99043.02;1707284;84;21064;-43
2021/06/12 08:06:45;;;;;;;5.00;4.50;;;;;;;24.25;54.66;99032.03;1701766;82;21145;-43
2021/06/12 08:09:12;;;;;;;5.28;4.17;;;;;;;24.34;52.49;99027.88;1711974;83;21020;-44
2021/06/12 08:11:40;;;;;;;8.75;4.85;;;;;;;24.36;51.88;99025.41;1691462;84;21027;-43
2021/06/12 08:14:07;;;;;;;6.30;4.60;;;;;;;24.42;52.01;99033.27;1691554;84;21479;-44
2021/06/12 08:16:34;;;;;;;5.20;4.40;;;;;;;24.45;51.64;99030.95;1678459;84;21091;-43
2021/06/12 08:19:00;;;;;;;5.00;4.60;;;;;;;24.47;50.42;99031.27;1673963;85;22084;-43
2021/06/12 08:23:36;;;;;;;4.60;4.20;;;;;;;24.57;52.02;99023.11;1778957;79;22668;-43
2021/06/12 08:26:03;;;;;;;5.55;5.00;;;;;;;24.63;51.07;99032.36;1738796;82;20950;-43
2021/06/12 08:28:30;;;;;;;5.35;4.85;;;;;;;24.83;51.25;99025.57;1738793;82;21803;-44
2021/06/12 08:30:58;;;;;;;5.20;4.70;;;;;;;25.01;50.38;99024.95;1738684;82;20998;-43
2021/06/12 08:33:24;;;;;;;5.00;4.50;;;;;;;25.17;49.99;99030.78;1738629;81;21563;-43
2021/06/12 08:35:51;;;;;;;4.60;4.20;;;;;;;25.35;49.03;99025.17;1738902;82;20990;-43
2021/06/12 08:38:18;;;;;;;4.30;3.90;;;;;;;25.53;47.95;99027.11;1739110;82;21556;-43
2021/06/12 08:40:47;;;;;;;4.25;3.67;;;;;;;25.60;47.39;99026.04;1738708;82;21146;-43
2021/06/12 08:43:23;;;;;;;4.47;4.08;;;;;;;25.57;48.14;99024.19;1720656;82;20966;-43
2021/06/12 08:45:50;;;;;;;4.85;4.35;;;;;;;25.57;48.03;99031.13;1738741;82;20970;-43
2021/06/12 08:48:18;;;;;;;4.35;3.90;;;;;;;25.64;48.05;99023.86;1738833;82;21592;-43
2021/06/12 08:50:45;;;;;;;8.98;4.22;;;;;;;25.70;46.88;99022.76;1738744;82;21046;-43
2021/06/12 08:53:12;;;;;;;4.47;3.72;;;;;;;25.72;47.11;99027.83;1738888;82;21139;-43
2021/06/12 08:55:42;;;;;;;4.85;4.12;;;;;;;25.68;46.61;99019.67;1738605;82;20934;-43
2021/06/12 08:58:09;;;;;;;6.50;4.05;;;;;;;25.67;47.09;99018.74;1738831;82;21109;-43
2021/06/12 09:00:36;;;;;;;3.98;3.60;;;;;;;25.65;47.00;99015.69;1738745;82;20931;-43
2021/06/12 09:03:23;;;;;;;4.20;3.80;;;;;;;25.68;47.81;99014.73;1739049;82;21450;-43
2021/06/12 09:05:58;;;;;;;4.42;3.77;;;;;;;25.81;46.42;99019.45;1738858;82;21144;-43
2021/06/12 09:08:30;;;;;;;5.35;4.17;;;;;;;25.88;46.09;99017.72;1738799;82;21795;-42
2021/06/12 09:11:08;;;;;;;4.42;3.70;;;;;;;25.87;45.63;99016.95;1738898;82;21465;-43
2021/06/12 09:13:40;;;;;;;3.70;3.40;;;;;;;25.95;46.44;99011.80;1737987;82;21561;-44
2021/06/12 09:16:27;;;;;;;4.35;3.72;;;;;;;26.11;46.70;99013.41;1735412;81;21037;-44
2021/06/12 09:19:08;;;;;;;3.55;3.22;;;;;;;26.24;45.47;99003.62;1727094;82;21178;-43
2021/06/12 09:21:37;;;;;;;5.62;3.67;;;;;;;26.34;44.03;99006.48;1726535;82;21566;-44
2021/06/12 09:24:07;;;;;;;3.37;3.08;;;;;;;26.42;43.61;98996.40;1727322;82;21027;-43
2021/06/12 09:26:57;;;;;;;5.47;3.33;;;;;;;26.47;44.03;99005.47;1726944;83;21033;-43
2021/06/12 09:29:20;;;;;;;5.95;3.15;;;;;;;26.47;42.74;99004.08;1726382;82;21045;-43
2021/06/12 09:31:50;;;;;;;3.62;3.33;;;;;;;26.38;43.29;99001.50;1735149;82;21164;-43
2021/06/12 09:34:23;;;;;;;3.62;3.33;;;;;;;26.33;42.29;99004.97;1726630;83;21033;-43
2021/06/12 09:36:51;;;;;;;3.40;3.10;;;;;;;26.29;41.89;98999.41;1726624;83;21584;-43
2021/06/12 09:39:22;;;;;;;3.50;3.17;;;;;;;26.31;43.16;98992.16;1726617;83;20996;-43
2021/06/12 09:41:54;;;;;;;4.22;3.50;;;;;;;26.44;42.25;98986.95;1726415;82;21056;-43
2021/06/12 09:44:42;;;;;;;4.25;3.40;;;;;;;26.54;41.71;98990.56;1726544;82;21102;-42
2021/06/12 09:47:22;;;;;;;6.37;3.80;;;;;;;26.61;41.74;98978.31;1726704;82;21290;-43
2021/06/12 09:49:48;;;;;;;3.40;3.10;;;;;;;26.65;41.85;98981.67;1726311;83;21036;-43
2021/06/12 09:52:18;;;;;;;3.85;3.50;;;;;;;26.72;40.73;98975.75;1726467;82;21029;-43
2021/06/12 09:54:49;;;;;;;3.80;3.27;;;;;;;26.84;42.63;98964.95;1726456;83;21566;-44
2021/06/12 09:57:19;;;;;;;3.58;3.27;;;;;;;27.04;43.00;98965.08;1726714;83;21097;-43
2021/06/12 09:59:49;;;;;;;4.47;3.00;;;;;;;27.20;41.05;98970.16;1726332;83;20999;-43
2021/06/12 10:02:41;;;;;;;4.92;3.25;;;;;;;27.31;41.07;98971.56;1726788;82;21558;-43
2021/06/12 10:05:11;;;;;;;3.37;3.08;;;;;;;27.34;41.72;98968.60;1726438;82;21024;-43
2021/06/12 10:07:38;;;;;;;3.40;3.10;;;;;;;27.34;41.41;98960.25;1726853;83;21529;-43
2021/06/12 10:10:12;;;;;;;6.00;3.55;;;;;;;27.35;40.59;98958.23;1746663;81;21083;-43
2021/06/12 10:12:41;;;;;;;3.50;3.20;;;;;;;27.28;41.41;98955.22;1720713;83;21487;-43
2021/06/12 10:15:12;;;;;;;2.95;2.72;;;;;;;27.33;39.46;98944.02;1720605;83;21020;-43
2021/06/12 10:17:50;;;;;;;5.78;2.95;;;;;;;27.42;39.50;98949.47;1720927;83;21028;-44
2021/06/12 10:20:22;;;;;;;4.15;2.65;;;;;;;27.54;38.01;98945.64;1720285;83;21083;-43
2021/06/12 10:22:53;;;;;;;2.95;2.65;;;;;;;27.51;39.53;98954.33;1718354;83;21149;-43
2021/06/12 10:25:21;;;;;;;3.27;2.65;;;;;;;27.51;38.38;98948.75;1714990;83;21027;-43
2021/06/12 10:27:48;;;;;;;3.15;2.85;;;;;;;27.44;39.37;98948.38;1715476;83;21065;-43
2021/06/12 10:30:18;;;;;;;3.35;2.70;;;;;;;27.45;39.30;98934.60;1715269;83;21494;-43
2021/06/12 10:32:51;;;;;;;3.55;2.60;;;;;;;27.47;37.78;98935.64;1715311;83;21060;-43
2021/06/12 10:35:20;;;;;;;2.77;2.52;;;;;;;27.46;37.80;98937.50;1751131;82;21482;-44
2021/06/12 10:38:08;;;;;;;3.10;2.80;;;;;;;27.52;38.07;98928.64;1715508;83;20897;-43
2021/06/12 10:40:50;;;;;;;2.62;2.42;;;;;;;27.61;38.75;98926.50;1751092;81;21053;-43
2021/06/12 10:43:23;;;;;;;3.15;2.83;;;;;;;27.69;38.56;98924.09;1751301;82;20965;-43
2021/06/12 10:46:10;;;;;;;3.80;2.90;;;;;;;27.93;38.64;98922.48;1715072;83;21064;-43
2021/06/12 10:48:52;;;;;;;3.17;2.75;;;;;;;28.16;37.33;98917.97;1751066;81;21145;-43
2021/06/12 10:51:31;;;;;;;3.27;2.70;;;;;;;28.18;38.64;98921.02;1751367;82;21880;-43
2021/06/12 10:56:59;;;;;;;3.17;2.70;;;;;;;27.95;38.58;98922.75;1745183;82;20929;-43
2021/06/12 10:59:51;;;;;;;3.50;2.62;;;;;;;27.97;39.21;98918.23;1751492;82;21545;-43
2021/06/12 11:05:01;;;;;;;3.05;2.75;;;;;;;28.00;38.66;98910.91;1750845;81;21597;-43
2021/06/12 11:07:39;;;;;;;3.85;3.00;;;;;;;27.85;39.05;98915.16;1751158;82;21071;-43
2021/06/12 11:10:15;;;;;;;3.35;3.05;;;;;;;27.63;40.29;98919.06;1715064;83;20968;-43
2021/06/12 11:12:45;;;;;;;3.55;2.83;;;;;;;27.38;40.30;98921.07;1715159;83;21044;-43
2021/06/12 11:15:16;;;;;;;;;;;;;;;27.14;41.67;98912.25;1754212;81;21109;-43
2021/06/12 11:17:44;;;;;;;3.08;2.50;;;;;;;27.09;42.78;98911.53;1748666;81;20212;-43
2021/06/12 11:20:16;;;;;;;3.20;2.90;;;;;;;26.97;42.41;98911.20;1751478;82;20965;-42
2021/06/12 11:22:57;;;;;;;4.00;2.62;;;;;;;27.17;42.08;98909.88;1749253;82;21045;-43
2021/06/12 11:25:29;;;;;;;3.35;2.90;;;;;;;27.55;41.82;98901.20;1707774;83;21032;-43
2021/06/12 11:28:20;;;;;;;3.02;2.75;;;;;;;28.08;40.43;98899.47;1743549;81;21865;-43
2021/06/12 11:30:48;;;;;;;2.92;2.70;;;;;;;28.38;39.22;98897.29;1678426;83;20898;-43
2021/06/12 11:33:15;;;;;;;4.58;2.80;;;;;;;28.49;37.56;98894.62;1707535;84;21550;-43
2021/06/12 11:35:59;;;;;;;5.47;2.95;;;;;;;28.49;38.63;98893.22;1707409;84;21012;-43
2021/06/12 11:38:35;;;;;;;4.05;3.08;;;;;;;28.39;39.46;98894.64;1742350;81;21029;-43
2021/06/12 11:41:07;;;;;;;5.17;3.10;;;;;;;28.10;39.26;98887.22;1707950;84;21097;-43
2021/06/12 11:43:39;;;;;;;4.83;3.00;;;;;;;27.76;39.38;98887.44;1743154;82;21020;-43
2021/06/12 11:46:11;;;;;;;3.65;2.72;;;;;;;27.54;40.03;98881.59;1743525;82;21020;-43
2021/06/12 11:48:42;;;;;;;4.08;2.77;;;;;;;27.27;41.02;98879.14;1707324;83;21108;-43
2021/06/12 11:51:33;;;;;;;3.72;3.02;;;;;;;26.97;41.37;98881.99;1743481;81;22131;-43